Marcolorado — V2EY5 — position and weather

sailwx.info

Track history (hours):
 
Tides and Currents Weather Stations Pressure Air Temp Water Temp Dewpoint Dewpoint Depression Visibility Wind Speed Wind Dir Waves Ship Positions

Marcolorado

Last reported at 2016-Dec-23 20:31 UTC. Time now 2017-Jan-23 08:40 UTC.
Position N 01°14' E 104°02'.
Warning: this ship's position is 30 days out of date.

Length 185 m; draft 10.2 m.

Type: Cargo ship. MMSI: 305599000.

Date/timePositionNaut miles runAvg speedWind from/ knotsBaromVisibWave heightAir tempDewpointWater temp
2016-Dec-23 20:31N 01°14' E 104°02'6 6.2
2016-Dec-23 19:33N 01°17' E 103°56'0 0.1
2016-Dec-23 18:04N 01°16' E 103°56'0 0.0
2016-Dec-23 17:28N 01°16' E 103°56'0 0.0
2016-Dec-23 14:25N 01°16' E 103°56'0 0.1
2016-Dec-23 13:16N 01°16' E 103°56'0 0.1
2016-Dec-23 12:07N 01°16' E 103°56'0 0.0
2016-Dec-23 11:34N 01°16' E 103°56'3 3.5
2016-Dec-23 10:33N 01°13' E 103°55'8 7.8
2016-Dec-23 09:33N 01°10' E 103°48'91 9.8
2016-Dec-23 00:16N 01°48' E 102°25'  
Track history (hours):
 
Tides and Currents Weather Stations Pressure Air Temp Water Temp Dewpoint Dewpoint Depression Visibility Wind Speed Wind Dir Waves Ship Positions

Marcolorado

Last reported at 2016-Dec-23 20:31 UTC. Time now 2017-Jan-23 08:40 UTC.
Position N 01°14' E 104°02'.
Warning: this ship's position is 30 days out of date.

Length 185 m; draft 10.2 m.

Type: Cargo ship. MMSI: 305599000.

Date/timePositionNaut miles runAvg speedWind from/ knotsBaromVisibWave heightAir tempDewpointWater temp
2016-Dec-23 20:31N 01°14' E 104°02'6 6.2
2016-Dec-23 19:33N 01°17' E 103°56'0 0.1
2016-Dec-23 18:04N 01°16' E 103°56'0 0.0
2016-Dec-23 17:28N 01°16' E 103°56'0 0.0
2016-Dec-23 14:25N 01°16' E 103°56'0 0.1
2016-Dec-23 13:16N 01°16' E 103°56'0 0.1
2016-Dec-23 12:07N 01°16' E 103°56'0 0.0
2016-Dec-23 11:34N 01°16' E 103°56'3 3.5
2016-Dec-23 10:33N 01°13' E 103°55'8 7.8
2016-Dec-23 09:33N 01°10' E 103°48'91 9.8
2016-Dec-23 00:16N 01°48' E 102°25'  

Dump ship's entire track history